Time;durP1;ratioP1;P1;durP2;ratioP2;P2;SDS_P1;SDS_P2;PMS_P1;PMS_P2;Temp;Humidity;BMP_temperature;BMP_pressure;BME280_temperature;BME280_humidity;BME280_pressure;Samples;Min_cycle;Max_cycle;Signal;HPM_P1;HPM_P2
2023/04/26 00:01:59;;;;;;;3.00;1.47;;;5.60;99.90;;;;;;4954482;29;20320;-77
2023/04/26 00:04:27;;;;;;;6.33;1.60;;;5.60;99.90;;;;;;4954110;28;20297;-77
2023/04/26 00:06:54;;;;;;;4.93;1.50;;;5.60;99.90;;;;;;4966410;28;20244;-77
2023/04/26 00:09:21;;;;;;;4.70;1.57;;;5.60;99.90;;;;;;4972982;28;20251;-77
2023/04/26 00:11:48;;;;;;;2.70;1.37;;;5.60;99.90;;;;;;4973523;28;20200;-78
2023/04/26 00:14:15;;;;;;;3.97;1.40;;;5.60;99.90;;;;;;4962221;28;20213;-78
2023/04/26 00:16:42;;;;;;;5.27;1.60;;;5.60;99.90;;;;;;4953815;29;20232;-77
2023/04/26 00:19:11;;;;;;;5.00;1.67;;;5.60;99.90;;;;;;4954154;29;20285;-77
2023/04/26 00:21:38;;;;;;;3.30;1.40;;;5.60;99.90;;;;;;4955860;28;20233;-78
2023/04/26 00:24:05;;;;;;;4.27;1.27;;;5.50;99.90;;;;;;4971653;28;20296;-77
2023/04/26 00:26:33;;;;;;;2.03;1.20;;;5.50;99.90;;;;;;4961132;28;20625;-77
2023/04/26 00:29:00;;;;;;;3.57;1.20;;;5.50;99.90;;;;;;4954280;29;20201;-78
2023/04/26 00:31:27;;;;;;;3.13;1.37;;;5.50;99.90;;;;;;4960364;28;20216;-77
2023/04/26 00:33:53;;;;;;;4.73;1.60;;;5.40;99.90;;;;;;4972421;28;20233;-77
2023/04/26 00:36:22;;;;;;;2.30;1.27;;;5.40;99.90;;;;;;4972162;28;20894;-78
2023/04/26 00:38:49;;;;;;;2.07;1.50;;;5.40;99.90;;;;;;4972505;28;20763;-78
2023/04/26 00:41:15;;;;;;;6.57;1.70;;;5.30;99.90;;;;;;4973372;28;20225;-78
2023/04/26 00:43:42;;;;;;;4.70;1.50;;;5.30;99.90;;;;;;4972197;28;20202;-76
2023/04/26 00:46:10;;;;;;;8.07;1.57;;;5.30;99.90;;;;;;4972629;28;20624;-76
2023/04/26 00:48:37;;;;;;;4.07;1.60;;;5.30;99.90;;;;;;4973015;28;20238;-76
2023/04/26 00:51:05;;;;;;;7.57;1.80;;;5.40;99.90;;;;;;4972780;28;20209;-77
2023/04/26 00:53:34;;;;;;;5.60;2.00;;;5.40;99.90;;;;;;4960523;28;20237;-78
2023/04/26 00:56:02;;;;;;;9.23;3.10;;;5.40;99.90;;;;;;4953781;28;20292;-77
2023/04/26 00:58:29;;;;;;;2.90;1.17;;;5.40;99.90;;;;;;4953496;29;20206;-76
2023/04/26 01:00:57;;;;;;;2.97;1.50;;;5.30;99.90;;;;;;4954158;29;20393;-77
2023/04/26 01:03:24;;;;;;;4.10;1.20;;;5.30;99.90;;;;;;4959194;28;20232;-77
2023/04/26 01:05:51;;;;;;;3.07;1.20;;;5.20;99.90;;;;;;4972475;28;20220;-77
2023/04/26 01:08:19;;;;;;;3.93;1.37;;;5.20;99.90;;;;;;4972765;28;20295;-78
2023/04/26 01:10:49;;;;;;;4.73;1.60;;;5.20;99.90;;;;;;4972771;28;20205;-77
2023/04/26 01:13:16;;;;;;;4.77;1.37;;;5.10;99.90;;;;;;4956865;28;20205;-77
2023/04/26 01:15:45;;;;;;;3.57;1.70;;;5.10;99.90;;;;;;4953533;29;20325;-78
2023/04/26 01:18:12;;;;;;;3.43;1.20;;;5.10;99.90;;;;;;4962743;28;20212;-78
2023/04/26 01:20:40;;;;;;;2.43;1.30;;;5.10;99.90;;;;;;4972296;28;20209;-78
2023/04/26 01:23:09;;;;;;;2.53;1.10;;;5.00;99.90;;;;;;4971734;28;20696;-77
2023/04/26 01:25:36;;;;;;;2.97;1.40;;;5.00;99.90;;;;;;4972793;28;20208;-77
2023/04/26 01:28:03;;;;;;;3.13;1.33;;;5.00;99.90;;;;;;4969294;28;20305;-77
2023/04/26 01:30:30;;;;;;;4.43;1.40;;;4.90;99.90;;;;;;4953948;29;20205;-78
2023/04/26 01:32:57;;;;;;;6.17;1.57;;;4.90;99.90;;;;;;4953077;28;20210;-77
2023/04/26 01:35:25;;;;;;;3.93;1.40;;;4.90;99.90;;;;;;4952731;29;20244;-77
2023/04/26 01:37:51;;;;;;;2.33;1.37;;;4.80;99.90;;;;;;4953148;29;20518;-75
2023/04/26 01:40:20;;;;;;;2.33;1.30;;;4.80;99.90;;;;;;4952956;28;20220;-77
2023/04/26 01:42:47;;;;;;;3.40;1.40;;;4.80;99.90;;;;;;4952925;28;20224;-78
2023/04/26 01:45:14;;;;;;;2.40;1.30;;;4.70;99.90;;;;;;4953878;28;20205;-78
2023/04/26 01:47:41;;;;;;;2.03;1.20;;;4.70;99.90;;;;;;4956889;29;20610;-76
2023/04/26 01:50:09;;;;;;;2.80;1.30;;;4.70;99.90;;;;;;4958675;28;20296;-77
2023/04/26 01:52:37;;;;;;;3.87;1.17;;;4.70;99.90;;;;;;4976252;28;20248;-76
2023/04/26 01:55:04;;;;;;;2.10;1.13;;;4.60;99.90;;;;;;4975587;28;20200;-77
2023/04/26 01:57:32;;;;;;;5.17;2.33;;;4.60;99.90;;;;;;4975195;28;20624;-77
2023/04/26 02:00:01;;;;;;;3.63;1.40;;;4.70;99.90;;;;;;4976106;28;20236;-77
2023/04/26 02:02:28;;;;;;;5.43;1.40;;;4.70;99.90;;;;;;4974943;28;20232;-77
2023/04/26 02:04:54;;;;;;;2.47;1.40;;;4.80;99.90;;;;;;4958828;28;20229;-76
2023/04/26 02:07:21;;;;;;;3.70;1.20;;;4.80;99.90;;;;;;4956547;29;20205;-77
2023/04/26 02:09:48;;;;;;;3.30;1.47;;;4.80;99.90;;;;;;4956045;29;20223;-76
2023/04/26 02:12:15;;;;;;;6.10;1.40;;;4.80;99.90;;;;;;4958730;28;20304;-78
2023/04/26 02:14:44;;;;;;;3.30;1.30;;;4.80;99.90;;;;;;4975746;28;20227;-75
2023/04/26 02:17:11;;;;;;;5.23;1.40;;;4.80;99.90;;;;;;4975039;28;20244;-78
2023/04/26 02:19:38;;;;;;;4.10;1.40;;;4.70;99.90;;;;;;4965327;28;20205;-77
2023/04/26 02:22:06;;;;;;;4.97;1.70;;;4.70;99.90;;;;;;4956246;29;20228;-77
2023/04/26 02:24:33;;;;;;;2.37;1.43;;;4.70;99.90;;;;;;4955941;29;20546;-78
2023/04/26 02:27:02;;;;;;;5.40;2.00;;;4.70;99.90;;;;;;4956163;28;20281;-77
2023/04/26 02:29:29;;;;;;;4.27;1.50;;;4.70;99.90;;;;;;4973667;28;20287;-77
2023/04/26 02:31:58;;;;;;;1.87;1.30;;;4.70;99.90;;;;;;4975131;28;20201;-78
2023/04/26 02:34:25;;;;;;;3.97;1.30;;;4.70;99.90;;;;;;4974616;28;20201;-77
2023/04/26 02:36:52;;;;;;;1.90;1.10;;;4.70;99.90;;;;;;4936795;29;20617;-76
2023/04/26 02:39:19;;;;;;;5.97;1.10;;;4.70;99.90;;;;;;4936234;29;20611;-77
2023/04/26 02:41:46;;;;;;;3.10;1.10;;;4.60;99.90;;;;;;4936694;28;20214;-76
2023/04/26 02:44:13;;;;;;;2.80;1.20;;;4.60;99.90;;;;;;4953559;28;20216;-76
2023/04/26 02:46:40;;;;;;;5.47;1.70;;;4.60;99.90;;;;;;4956031;29;20292;-77
2023/04/26 02:49:08;;;;;;;3.87;1.67;;;4.60;99.90;;;;;;4956304;29;20197;-77
2023/04/26 02:51:35;;;;;;;1.90;1.37;;;4.50;99.90;;;;;;4956225;28;20625;-77
2023/04/26 02:54:02;;;;;;;4.50;1.20;;;4.50;99.90;;;;;;4974879;28;20255;-77
2023/04/26 02:56:30;;;;;;;7.47;1.87;;;4.50;99.90;;;;;;4974596;28;20629;-80
2023/04/26 02:58:57;;;;;;;4.07;1.90;;;4.50;99.90;;;;;;4974471;28;20200;-76
2023/04/26 03:01:24;;;;;;;2.40;1.20;;;4.40;99.90;;;;;;4973902;28;20211;-78
2023/04/26 03:03:51;;;;;;;3.50;1.40;;;4.40;99.90;;;;;;4974536;28;20746;-79
2023/04/26 03:06:19;;;;;;;2.90;1.70;;;4.40;99.90;;;;;;4965999;28;20236;-77
2023/04/26 03:08:46;;;;;;;5.70;1.23;;;4.30;99.90;;;;;;4956378;29;20198;-79
2023/04/26 03:11:13;;;;;;;6.13;1.50;;;4.40;99.90;;;;;;4964285;28;20218;-79
2023/04/26 03:13:40;;;;;;;2.00;1.40;;;4.50;99.90;;;;;;4975173;28;20215;-79
2023/04/26 03:16:07;;;;;;;6.40;2.30;;;4.50;99.90;;;;;;4975568;28;20211;-77
2023/04/26 03:18:34;;;;;;;2.53;1.40;;;4.50;99.90;;;;;;4973878;28;20210;-79
2023/04/26 03:21:02;;;;;;;2.77;1.30;;;4.60;99.90;;;;;;4974396;28;20197;-78
2023/04/26 03:23:30;;;;;;;2.67;1.30;;;4.70;99.90;;;;;;4974478;28;20315;-78
2023/04/26 03:25:57;;;;;;;2.83;1.23;;;4.70;99.90;;;;;;4968587;28;20232;-79
2023/04/26 03:28:24;;;;;;;2.40;1.30;;;4.70;99.90;;;;;;4954880;29;20260;-77
2023/04/26 03:30:51;;;;;;;3.13;1.60;;;4.70;99.90;;;;;;4955843;28;20280;-78
2023/04/26 03:33:18;;;;;;;1.90;1.30;;;4.70;99.90;;;;;;4974210;28;20203;-79
2023/04/26 03:35:45;;;;;;;3.60;1.50;;;4.70;99.90;;;;;;4974284;28;20276;-79
2023/04/26 03:38:12;;;;;;;4.03;2.10;;;4.80;99.90;;;;;;4974265;28;20255;-79
2023/04/26 03:40:40;;;;;;;3.67;1.40;;;4.90;99.90;;;;;;4965235;28;20685;-78
2023/04/26 03:43:07;;;;;;;3.77;1.50;;;4.90;99.90;;;;;;4954994;29;20594;-77
2023/04/26 03:45:34;;;;;;;4.83;1.60;;;5.00;99.90;;;;;;4954890;29;20228;-77
2023/04/26 03:48:01;;;;;;;3.90;1.57;;;5.00;99.90;;;;;;4954134;28;20224;-79
2023/04/26 03:50:28;;;;;;;3.90;1.30;;;5.10;99.90;;;;;;4954865;29;20197;-78
2023/04/26 03:52:55;;;;;;;4.20;1.10;;;5.30;99.90;;;;;;4961331;28;20323;-79
2023/04/26 03:55:22;;;;;;;1.43;1.27;;;5.40;99.90;;;;;;4972992;28;20205;-79
2023/04/26 03:57:52;;;;;;;3.13;1.10;;;5.50;99.90;;;;;;4973727;28;20218;-80
2023/04/26 04:00:20;;;;;;;5.87;1.27;;;5.50;99.90;;;;;;4973936;28;20187;-79
2023/04/26 04:02:47;;;;;;;2.17;1.33;;;5.50;99.90;;;;;;4973572;28;20240;-79
2023/04/26 04:05:14;;;;;;;4.23;2.07;;;5.50;99.90;;;;;;4973376;28;20290;-79
2023/04/26 04:07:40;;;;;;;6.07;1.50;;;5.50;99.90;;;;;;4973840;28;20504;-79
2023/04/26 04:10:09;;;;;;;3.90;1.20;;;5.50;99.90;;;;;;4973123;28;20200;-80
2023/04/26 04:12:36;;;;;;;2.73;1.37;;;5.50;99.90;;;;;;4973867;28;20204;-77
2023/04/26 04:15:05;;;;;;;3.70;1.20;;;5.50;99.90;;;;;;4973784;28;20226;-80
2023/04/26 04:17:32;;;;;;;5.23;1.90;;;5.60;99.90;;;;;;4973026;28;20209;-80
2023/04/26 04:19:59;;;;;;;5.30;1.27;;;5.70;99.90;;;;;;4973777;28;20204;-80
2023/04/26 04:22:26;;;;;;;7.43;2.57;;;5.80;99.90;;;;;;4982410;28;20310;-80
2023/04/26 04:24:53;;;;;;;6.27;1.70;;;5.90;99.90;;;;;;4992985;28;20684;-79
2023/04/26 04:27:20;;;;;;;7.07;1.60;;;5.90;99.90;;;;;;4985072;28;20308;-77
2023/04/26 04:29:47;;;;;;;6.47;1.77;;;5.90;99.90;;;;;;4972782;28;20189;-79
2023/04/26 04:32:16;;;;;;;4.93;1.90;;;5.80;99.90;;;;;;4973267;28;20252;-79
2023/04/26 04:34:43;;;;;;;7.37;1.93;;;5.80;99.90;;;;;;4972842;28;20205;-79
2023/04/26 04:37:10;;;;;;;5.93;2.00;;;5.80;99.90;;;;;;4972541;28;20296;-79
2023/04/26 04:39:37;;;;;;;6.10;1.87;;;5.80;99.90;;;;;;4973412;28;20284;-79
2023/04/26 04:42:04;;;;;;;3.20;1.60;;;5.70;99.90;;;;;;4973350;28;20220;-79
2023/04/26 04:44:31;;;;;;;1.93;1.30;;;5.70;99.90;;;;;;4972972;28;20232;-79
2023/04/26 04:46:58;;;;;;;2.57;1.20;;;5.60;99.90;;;;;;4972676;28;20208;-79
2023/04/26 04:49:26;;;;;;;3.13;1.50;;;5.60;99.90;;;;;;4973282;28;20207;-79
2023/04/26 04:51:53;;;;;;;3.50;1.50;;;5.60;99.90;;;;;;4972808;28;20296;-79
2023/04/26 04:54:20;;;;;;;2.93;1.40;;;5.60;99.90;;;;;;4973098;28;20274;-78
2023/04/26 04:56:47;;;;;;;3.03;2.13;;;5.50;99.90;;;;;;4972786;28;20212;-79
2023/04/26 04:59:14;;;;;;;2.77;1.30;;;5.50;99.90;;;;;;4972814;28;20201;-78
2023/04/26 05:01:41;;;;;;;4.47;1.60;;;5.50;99.90;;;;;;4973192;28;20619;-78
2023/04/26 05:04:07;;;;;;;4.83;1.80;;;5.60;99.90;;;;;;4972492;28;20228;-79
2023/04/26 05:06:36;;;;;;;4.80;1.50;;;5.60;99.90;;;;;;4972187;28;20308;-78
2023/04/26 05:09:04;;;;;;;5.47;1.73;;;5.60;99.90;;;;;;4973083;28;20546;-79
2023/04/26 05:11:32;;;;;;;4.07;1.37;;;5.70;99.90;;;;;;4972930;28;20208;-79
2023/04/26 05:13:59;;;;;;;4.00;1.47;;;5.70;99.90;;;;;;4971831;28;20209;-78
2023/04/26 05:16:26;;;;;;;7.83;2.90;;;5.80;99.90;;;;;;4972564;28;20326;-79
2023/04/26 05:18:53;;;;;;;4.50;1.60;;;5.80;99.90;;;;;;4972760;28;20203;-79
2023/04/26 05:21:20;;;;;;;2.53;1.57;;;5.90;99.90;;;;;;4975322;28;20235;-79
2023/04/26 05:23:48;;;;;;;2.57;1.40;;;6.00;99.90;;;;;;4976508;28;20283;-79
2023/04/26 05:26:16;;;;;;;5.00;1.43;;;6.10;99.90;;;;;;4976139;28;20227;-78
2023/04/26 05:28:44;;;;;;;4.43;1.67;;;6.20;99.90;;;;;;4952238;28;20323;-79
2023/04/26 05:31:11;;;;;;;5.63;1.50;;;6.30;99.90;;;;;;4976255;28;20259;-77
2023/04/26 05:33:38;;;;;;;5.30;1.40;;;6.50;99.90;;;;;;4976291;28;20520;-80
2023/04/26 05:36:08;;;;;;;3.17;1.50;;;6.60;99.90;;;;;;4976226;28;20251;-80
2023/04/26 05:38:35;;;;;;;5.43;1.30;;;6.80;99.90;;;;;;4976600;28;20216;-79
2023/04/26 05:41:03;;;;;;;7.53;1.50;;;6.90;99.90;;;;;;4975509;28;20197;-79
2023/04/26 05:43:30;;;;;;;4.63;1.40;;;7.10;99.90;;;;;;4975874;28;20699;-79
2023/04/26 05:45:57;;;;;;;2.27;1.20;;;7.20;99.90;;;;;;4995183;28;20212;-80
2023/04/26 05:48:25;;;;;;;5.10;1.43;;;7.30;99.90;;;;;;4995581;28;20556;-79
2023/04/26 05:50:52;;;;;;;4.93;1.63;;;7.40;99.90;;;;;;4995315;28;20278;-80
2023/04/26 05:53:20;;;;;;;5.90;1.40;;;7.40;99.90;;;;;;4989251;28;20236;-79
2023/04/26 05:55:47;;;;;;;6.70;1.50;;;7.40;99.90;;;;;;4991192;28;20491;-79
2023/04/26 05:58:15;;;;;;;3.90;1.50;;;7.50;99.90;;;;;;4975798;28;20288;-79
2023/04/26 06:00:42;;;;;;;3.33;1.50;;;7.50;99.90;;;;;;4976437;28;20311;-79
2023/04/26 06:03:09;;;;;;;3.67;1.40;;;7.50;99.90;;;;;;4975067;28;20316;-79
2023/04/26 06:05:37;;;;;;;3.37;1.50;;;7.50;99.90;;;;;;4975657;28;20233;-80
2023/04/26 06:08:04;;;;;;;4.63;1.60;;;7.50;99.90;;;;;;4975291;28;20209;-80
2023/04/26 06:10:31;;;;;;;2.43;1.37;;;7.60;99.90;;;;;;4975715;28;20216;-80
2023/04/26 06:12:58;;;;;;;3.50;1.70;;;7.60;99.90;;;;;;4976087;28;20201;-79
2023/04/26 06:15:27;;;;;;;3.77;1.77;;;7.60;99.90;;;;;;4974868;28;20219;-79
2023/04/26 06:18:38;;;;;;;5.03;1.70;;;7.60;99.90;;;;;;4974364;28;20212;-80
2023/04/26 06:21:05;;;;;;;8.83;2.07;;;7.60;99.90;;;;;;4975491;28;20583;-79
2023/04/26 06:23:32;;;;;;;2.97;1.50;;;7.60;99.90;;;;;;4974509;28;20628;-79
2023/04/26 06:25:59;;;;;;;4.33;1.83;;;7.60;99.90;;;;;;4975793;28;20280;-79
2023/04/26 06:28:26;;;;;;;5.90;1.57;;;7.70;99.90;;;;;;4975688;28;20597;-77
2023/04/26 06:30:54;;;;;;;3.47;1.57;;;7.70;99.90;;;;;;4974990;28;20197;-77
2023/04/26 06:33:21;;;;;;;4.70;1.60;;;7.70;99.90;;;;;;4974243;28;20256;-75
2023/04/26 06:35:48;;;;;;;2.47;1.60;;;7.70;99.90;;;;;;4975223;28;20213;-78
2023/04/26 06:38:14;;;;;;;2.53;1.20;;;7.80;99.90;;;;;;4974743;28;20519;-77
2023/04/26 06:40:41;;;;;;;4.27;1.20;;;7.80;99.90;;;;;;4975599;28;20297;-78
2023/04/26 06:43:08;;;;;;;7.33;1.50;;;7.80;99.90;;;;;;4974915;28;20228;-78
2023/04/26 06:45:35;;;;;;;3.07;1.40;;;7.80;99.90;;;;;;4975089;28;20232;-78
2023/04/26 06:48:05;;;;;;;4.30;1.57;;;7.80;99.90;;;;;;4974817;28;20295;-77
2023/04/26 06:50:32;;;;;;;4.07;1.70;;;7.90;99.90;;;;;;4974636;28;20212;-81
2023/04/26 06:52:59;;;;;;;5.87;1.23;;;7.90;99.90;;;;;;4968714;28;20252;-79
2023/04/26 06:55:26;;;;;;;3.67;1.03;;;8.00;99.90;;;;;;4965367;28;20680;-79
2023/04/26 06:57:53;;;;;;;3.07;1.17;;;8.00;99.90;;;;;;4974004;28;20189;-78
2023/04/26 07:00:20;;;;;;;6.63;1.87;;;8.00;99.90;;;;;;4979973;28;20212;-79
2023/04/26 07:02:47;;;;;;;4.93;1.53;;;8.00;99.90;;;;;;4994195;28;20323;-81
2023/04/26 07:05:16;;;;;;;5.77;1.80;;;8.10;99.90;;;;;;4991908;28;20227;-76
2023/04/26 07:07:42;;;;;;;4.63;1.47;;;8.10;99.90;;;;;;4974482;28;20212;-80
2023/04/26 07:10:10;;;;;;;3.33;1.30;;;8.10;99.90;;;;;;4974830;28;20196;-78
2023/04/26 07:12:37;;;;;;;3.23;1.23;;;8.10;99.90;;;;;;4974226;28;20291;-78
2023/04/26 07:15:06;;;;;;;4.13;1.30;;;8.20;99.90;;;;;;4971060;28;20271;-78
2023/04/26 07:17:33;;;;;;;3.27;1.10;;;8.20;99.90;;;;;;4975104;28;20215;-79
2023/04/26 07:20:00;;;;;;;4.97;1.40;;;8.20;99.90;;;;;;4973056;28;20287;-77
2023/04/26 07:22:28;;;;;;;2.37;1.20;;;8.30;99.90;;;;;;4973205;28;20188;-78
2023/04/26 07:24:55;;;;;;;2.63;1.27;;;8.40;99.90;;;;;;4979537;28;20224;-78
2023/04/26 07:27:22;;;;;;;2.80;1.27;;;8.40;99.90;;;;;;4971587;28;20291;-79
2023/04/26 07:29:49;;;;;;;8.40;1.30;;;8.40;99.90;;;;;;4971589;28;20235;-78
2023/04/26 07:32:16;;;;;;;2.57;1.10;;;8.40;99.90;;;;;;4972917;28;20231;-78
2023/04/26 07:34:43;;;;;;;4.20;1.23;;;8.50;99.90;;;;;;4973853;28;20200;-79
2023/04/26 07:37:10;;;;;;;3.27;0.83;;;8.50;99.90;;;;;;4970978;28;20214;-76
2023/04/26 07:39:38;;;;;;;1.67;1.30;;;8.50;99.90;;;;;;4975547;28;20211;-78
2023/04/26 07:42:06;;;;;;;3.30;1.30;;;8.60;99.90;;;;;;4972459;28;20223;-79
2023/04/26 07:44:33;;;;;;;7.93;1.73;;;8.60;99.90;;;;;;4973693;28;20220;-78
2023/04/26 07:46:59;;;;;;;6.97;1.63;;;8.50;99.90;;;;;;4973631;28;20196;-77
2023/04/26 07:49:26;;;;;;;2.57;1.40;;;8.60;99.90;;;;;;4972192;28;20861;-78
2023/04/26 07:51:57;;;;;;;4.60;1.77;;;8.60;99.90;;;;;;4971289;28;20304;-78
2023/04/26 07:54:24;;;;;;;3.07;1.23;;;8.60;99.90;;;;;;4964042;28;20240;-78
2023/04/26 07:56:53;;;;;;;4.23;1.50;;;8.70;99.90;;;;;;4972504;28;20492;-79
2023/04/26 07:59:20;;;;;;;2.67;1.30;;;8.70;99.90;;;;;;4972898;28;20212;-79
2023/04/26 08:01:46;;;;;;;3.23;1.20;;;8.80;99.90;;;;;;4974691;28;20201;-77
2023/04/26 08:04:13;;;;;;;5.07;2.23;;;8.80;99.90;;;;;;4978074;28;20223;-77
2023/04/26 08:06:47;;;;;;;4.33;1.27;;;8.90;99.90;;;;;;4973348;28;20248;-79
2023/04/26 08:09:16;;;;;;;6.17;1.20;;;9.00;99.90;;;;;;4971377;28;20212;-79
2023/04/26 08:11:43;;;;;;;3.77;1.23;;;8.90;99.90;;;;;;4970677;28;20750;-77
2023/04/26 08:14:11;;;;;;;7.20;1.43;;;9.00;99.90;;;;;;4972726;28;20214;-77
2023/04/26 08:16:38;;;;;;;5.07;1.10;;;9.10;99.90;;;;;;4973164;28;20230;-77
2023/04/26 08:19:05;;;;;;;3.27;1.23;;;9.30;99.90;;;;;;4975695;28;20209;-77
2023/04/26 08:21:32;;;;;;;4.47;1.40;;;9.40;99.90;;;;;;4968920;28;20204;-75
2023/04/26 08:23:58;;;;;;;3.13;1.10;;;9.50;99.90;;;;;;4972088;28;20331;-76
2023/04/26 08:26:25;;;;;;;3.13;1.20;;;9.60;99.90;;;;;;4972587;28;20529;-75
2023/04/26 08:28:52;;;;;;;5.53;1.40;;;9.70;99.90;;;;;;4972222;28;20295;-76
2023/04/26 08:31:21;;;;;;;3.73;1.60;;;9.80;99.90;;;;;;4973480;28;20197;-77
2023/04/26 08:33:48;;;;;;;3.97;1.10;;;9.80;99.90;;;;;;4973221;28;20605;-77
2023/04/26 08:36:15;;;;;;;3.90;1.30;;;9.90;99.90;;;;;;4972432;28;20205;-76
2023/04/26 08:38:42;;;;;;;3.50;1.23;;;10.10;99.90;;;;;;4972974;28;20296;-77
2023/04/26 08:41:13;;;;;;;5.20;1.30;;;10.20;99.90;;;;;;4973277;28;20608;-78
2023/04/26 08:43:40;;;;;;;3.20;0.97;;;10.50;99.90;;;;;;4972156;28;20632;-75
2023/04/26 08:46:10;;;;;;;2.73;1.33;;;10.70;99.90;;;;;;4972987;28;20200;-77
2023/04/26 08:49:05;;;;;;;3.37;1.27;;;10.90;99.90;;;;;;4972379;28;20761;-78
2023/04/26 08:53:59;;;;;;;3.30;0.90;;;11.30;99.90;;;;;;4965503;23;20246;-79
2023/04/26 08:56:27;;;;;;;3.83;1.30;;;11.50;99.90;;;;;;4953278;28;20709;-79
2023/04/26 08:58:55;;;;;;;3.43;1.33;;;11.60;99.90;;;;;;4953212;28;20209;-77
2023/04/26 09:01:24;;;;;;;3.07;1.10;;;11.70;99.90;;;;;;4953430;29;20213;-80
2023/04/26 09:03:55;;;;;;;1.73;1.00;;;11.70;99.90;;;;;;4952706;29;20205;-79
2023/04/26 09:06:22;;;;;;;2.83;1.00;;;11.70;99.90;;;;;;4953485;29;20221;-77
2023/04/26 09:08:51;;;;;;;3.47;1.10;;;11.80;99.90;;;;;;4953120;29;20209;-78
2023/04/26 09:11:18;;;;;;;2.20;1.10;;;11.70;99.90;;;;;;4952478;29;20208;-79
2023/04/26 09:13:45;;;;;;;3.23;1.20;;;11.90;99.90;;;;;;4951207;28;20204;-78
2023/04/26 09:16:12;;;;;;;2.80;0.80;;;11.90;99.90;;;;;;4952003;28;20603;-79
2023/04/26 09:18:49;;;;;;;1.80;0.90;;;11.90;1.00;;;;;;4951803;28;20288;-79
2023/04/26 09:21:19;;;;;;;3.17;1.20;;;12.00;99.90;;;;;;4950542;28;20189;-79
2023/04/26 09:23:58;;;;;;;4.13;1.23;;;12.30;1.00;;;;;;4950825;28;20201;-78
2023/04/26 09:26:25;;;;;;;3.47;1.30;;;12.40;1.00;;;;;;4950751;28;20202;-80
2023/04/26 09:29:12;;;;;;;1.10;0.80;;;12.40;1.00;;;;;;4952677;28;20209;-78
2023/04/26 09:31:41;;;;;;;3.73;1.23;;;12.40;1.00;;;;;;4950224;28;20212;-79
2023/04/26 09:34:10;;;;;;;1.47;0.93;;;12.30;1.00;;;;;;4952474;28;20193;-78
2023/04/26 09:36:52;;;;;;;4.67;1.17;;;12.30;99.90;;;;;;4951978;28;20205;-78
2023/04/26 09:39:32;;;;;;;3.53;1.50;;;12.10;99.90;;;;;;4951973;28;20233;-78
2023/04/26 09:41:59;;;;;;;2.07;1.30;;;11.90;99.90;;;;;;4951173;28;20212;-78
2023/04/26 09:44:26;;;;;;;2.57;1.13;;;11.80;99.90;;;;;;4944776;28;20523;-79
2023/04/26 09:47:04;;;;;;;5.60;1.10;;;11.90;99.90;;;;;;4951854;28;20205;-78
2023/04/26 09:49:33;;;;;;;2.07;1.07;;;12.10;1.00;;;;;;4948331;28;20209;-78
2023/04/26 09:52:03;;;;;;;3.13;1.10;;;12.10;1.00;;;;;;4947384;28;20251;-77
2023/04/26 09:54:41;;;;;;;2.97;1.20;;;12.10;1.00;;;;;;4969294;28;20231;-76
2023/04/26 09:57:08;;;;;;;2.37;1.20;;;12.30;1.00;;;;;;4970191;28;20220;-76
2023/04/26 09:59:43;;;;;;;3.30;0.93;;;12.50;1.00;;;;;;4972127;28;20196;-78
2023/04/26 10:02:19;;;;;;;2.77;1.37;;;12.70;1.00;;;;;;4971901;28;20262;-78
2023/04/26 10:04:48;;;;;;;2.27;1.17;;;12.80;1.00;;;;;;4970766;28;20338;-77
2023/04/26 10:07:19;;;;;;;3.77;1.33;;;13.00;71.30;;;;;;4973591;28;20216;-78
2023/04/26 10:09:46;;;;;;;2.60;1.10;;;13.20;1.00;;;;;;4975586;28;20510;-77
2023/04/26 10:12:15;;;;;;;3.17;1.00;;;13.40;1.00;;;;;;4976377;28;20197;-75
2023/04/26 10:14:43;;;;;;;2.17;0.90;;;13.00;1.00;;;;;;4974876;28;20231;-76
2023/04/26 10:17:11;;;;;;;3.87;1.50;;;12.80;1.00;;;;;;4975423;28;20481;-77
2023/04/26 10:19:43;;;;;;;3.23;1.10;;;12.70;1.00;;;;;;4975438;28;20204;-79
2023/04/26 10:22:14;;;;;;;14.40;2.10;;;12.80;1.00;;;;;;4975321;28;20193;-78
2023/04/26 10:24:44;;;;;;;3.87;1.03;;;13.10;1.00;;;;;;4974841;28;20228;-77
2023/04/26 10:27:11;;;;;;;2.77;1.00;;;13.20;1.00;;;;;;4974313;28;20624;-79
2023/04/26 10:30:10;;;;;;;2.90;1.30;;;13.30;99.90;;;;;;4975102;28;20204;-77
2023/04/26 10:33:15;;;;;;;2.37;0.90;;;13.60;99.90;;;;;;4974752;28;20208;-77
2023/04/26 10:36:07;;;;;;;9.77;2.20;;;13.70;99.90;;;;;;4973470;28;20188;-76
2023/04/26 10:38:35;;;;;;;3.67;1.63;;;13.90;99.90;;;;;;4974382;28;20751;-76
2023/04/26 10:41:38;;;;;;;2.07;0.90;;;13.90;99.90;;;;;;4973424;28;20563;-77
2023/04/26 10:44:40;;;;;;;3.23;1.00;;;14.00;99.90;;;;;;4973305;28;20204;-78
2023/04/26 10:47:07;;;;;;;3.93;1.10;;;13.90;99.90;;;;;;4932544;29;20206;-78
2023/04/26 10:49:46;;;;;;;2.37;1.00;;;13.90;99.90;;;;;;4973753;28;20212;-78
2023/04/26 10:52:15;;;;;;;1.70;1.03;;;13.40;99.90;;;;;;4975133;28;20246;-77
2023/04/26 10:55:01;;;;;;;2.77;1.20;;;13.30;1.00;;;;;;4973691;28;20235;-77
2023/04/26 10:57:49;;;;;;;2.07;1.03;;;13.20;1.00;;;;;;4975388;28;20208;-77
2023/04/26 11:00:21;;;;;;;3.50;1.20;;;13.10;1.00;;;;;;4974117;28;20212;-77
2023/04/26 11:02:58;;;;;;;3.73;1.10;;;13.00;99.90;;;;;;4974335;28;20282;-77
2023/04/26 11:05:41;;;;;;;4.20;1.33;;;13.00;1.00;;;;;;4973697;28;20228;-77
2023/04/26 11:08:15;;;;;;;1.70;1.00;;;12.90;99.90;;;;;;4974526;28;20543;-77
2023/04/26 11:10:42;;;;;;;3.33;1.00;;;12.80;1.00;;;;;;4973508;28;20207;-78
2023/04/26 11:13:12;;;;;;;7.27;1.90;;;12.80;1.00;;;;;;4974473;28;20203;-78
2023/04/26 11:15:39;;;;;;;3.23;1.03;;;13.00;1.00;;;;;;4976255;28;20207;-78
2023/04/26 11:18:06;;;;;;;2.70;1.07;;;13.20;1.00;;;;;;4972617;28;20252;-79
2023/04/26 11:20:33;;;;;;;3.57;1.53;;;13.20;1.00;;;;;;4974541;28;20212;-77
2023/04/26 11:23:01;;;;;;;4.10;0.87;;;13.00;99.90;;;;;;4973578;28;20412;-79
2023/04/26 11:25:28;;;;;;;4.23;1.43;;;13.00;1.00;;;;;;4973090;28;20939;-78
2023/04/26 11:28:00;;;;;;;2.93;1.13;;;13.10;1.00;;;;;;4973982;28;20216;-78
2023/04/26 11:30:30;;;;;;;8.40;5.13;;;13.40;1.00;;;;;;4973731;28;20188;-79
2023/04/26 11:32:58;;;;;;;5.50;2.43;;;13.50;1.00;;;;;;4954365;28;20190;-76
2023/04/26 11:35:28;;;;;;;7.43;3.80;;;13.80;1.00;;;;;;4955149;28;20256;-77
2023/04/26 11:37:58;;;;;;;5.45;3.80;;;14.00;1.00;;;;;;4969316;28;20332;-78
2023/04/26 11:40:28;;;;;;;4.25;2.03;;;14.20;99.90;;;;;;4961434;28;20216;-78
2023/04/26 11:42:55;;;;;;;4.13;1.48;;;14.10;1.00;;;;;;4964608;28;20248;-78
2023/04/26 11:45:22;;;;;;;7.53;3.90;;;14.20;1.00;;;;;;4967114;28;20308;-78
2023/04/26 11:47:50;;;;;;;5.40;1.30;;;14.30;1.00;;;;;;4967412;28;20514;-78
2023/04/26 11:50:18;;;;;;;2.67;1.30;;;14.10;1.00;;;;;;4971365;28;20212;-80
2023/04/26 11:52:45;;;;;;;3.67;1.43;;;14.00;99.90;;;;;;4972706;28;20253;-80
2023/04/26 11:55:13;;;;;;;3.70;1.65;;;13.80;99.90;;;;;;4970863;28;20286;-79
2023/04/26 11:57:40;;;;;;;4.53;2.38;;;13.70;99.90;;;;;;4970079;28;20209;-78
2023/04/26 12:00:13;;;;;;;2.47;1.47;;;13.80;99.90;;;;;;4973385;28;20204;-78
2023/04/26 12:02:43;;;;;;;4.97;1.40;;;13.90;99.90;;;;;;4973903;28;20204;-77
2023/04/26 12:05:20;;;;;;;3.00;1.13;;;14.10;1.00;;;;;;4973285;28;20877;-79
2023/04/26 12:07:50;;;;;;;3.47;1.30;;;14.20;1.00;;;;;;4973438;28;20192;-78
2023/04/26 12:10:18;;;;;;;4.13;1.23;;;14.30;1.00;;;;;;4972416;28;20574;-77
2023/04/26 12:12:48;;;;;;;3.83;1.70;;;14.40;99.90;;;;;;4972406;28;20205;-78
2023/04/26 12:15:15;;;;;;;3.67;1.30;;;14.60;99.90;;;;;;4971422;28;20683;-77
2023/04/26 12:17:52;;;;;;;6.28;1.23;;;14.70;1.00;;;;;;4972012;28;20201;-77
2023/04/26 12:20:27;;;;;;;5.05;1.00;;;14.70;1.00;;;;;;4972831;28;20756;-77
2023/04/26 12:22:59;;;;;;;3.10;1.20;;;14.40;1.00;;;;;;4971989;28;20251;-77
2023/04/26 12:25:26;;;;;;;3.53;1.30;;;14.20;1.00;;;;;;4973454;28;20719;-77
2023/04/26 12:27:53;;;;;;;2.28;0.85;;;13.90;1.00;;;;;;4972969;28;20196;-77
2023/04/26 12:30:20;;;;;;;3.13;1.10;;;14.00;99.90;;;;;;4972756;28;20207;-79
2023/04/26 12:32:48;;;;;;;3.58;1.50;;;14.10;99.90;;;;;;4973702;28;20224;-77
2023/04/26 12:35:15;;;;;;;2.05;0.80;;;14.20;1.00;;;;;;4973163;28;20287;-77
2023/04/26 12:37:43;;;;;;;1.63;0.90;;;14.40;1.00;;;;;;4973671;28;20193;-77
2023/04/26 12:40:11;;;;;;;3.30;1.00;;;14.30;1.00;;;;;;4972303;28;20213;-78
2023/04/26 12:42:39;;;;;;;3.47;1.03;;;14.40;1.00;;;;;;4973091;28;20517;-77
2023/04/26 12:45:06;;;;;;;3.45;1.20;;;14.60;1.00;;;;;;4972737;28;20266;-78
2023/04/26 12:47:34;;;;;;;2.57;1.13;;;14.60;1.00;;;;;;4973829;28;20208;-77
2023/04/26 12:50:01;;;;;;;3.50;1.20;;;14.50;52.90;;;;;;4972974;28;20204;-77
2023/04/26 12:52:27;;;;;;;3.40;1.10;;;14.40;99.90;;;;;;4973191;28;20243;-76
2023/04/26 12:54:56;;;;;;;1.67;1.25;;;14.20;1.00;;;;;;4973086;28;20208;-77
2023/04/26 12:57:23;;;;;;;2.97;1.10;;;14.10;1.00;;;;;;4972619;28;20549;-79
2023/04/26 12:59:50;;;;;;;2.97;1.47;;;14.00;1.00;;;;;;4973255;28;20292;-79
2023/04/26 13:02:17;;;;;;;2.40;1.10;;;13.90;1.00;;;;;;4973125;28;20259;-77
2023/04/26 13:04:44;;;;;;;2.07;1.13;;;14.00;1.00;;;;;;4972953;28;20226;-78
2023/04/26 13:07:11;;;;;;;1.27;0.90;;;13.90;1.00;;;;;;4972535;28;20232;-77